createdAt,value
2022-12-03T00:00:50.623Z,18.20
2022-12-03T00:03:18.171Z,18.17
2022-12-03T00:05:49.177Z,19.30
2022-12-03T00:08:16.902Z,20.40
2022-12-03T00:10:44.142Z,19.15
2022-12-03T00:13:11.316Z,20.40
2022-12-03T00:15:38.543Z,18.10
2022-12-03T00:18:05.737Z,19.48
2022-12-03T00:20:32.937Z,20.63
2022-12-03T00:23:00.156Z,20.73
2022-12-03T00:25:27.388Z,21.70
2022-12-03T00:27:54.599Z,20.10
2022-12-03T00:30:21.752Z,20.85
2022-12-03T00:32:48.881Z,15.85
2022-12-03T00:35:16.420Z,20.52
2022-12-03T00:37:43.606Z,20.20
2022-12-03T00:40:11.551Z,21.40
2022-12-03T00:42:38.709Z,21.02
2022-12-03T00:45:06.160Z,22.33
2022-12-03T00:47:33.332Z,20.85
2022-12-03T00:50:00.467Z,20.77
2022-12-03T00:52:27.597Z,23.17
2022-12-03T00:54:54.984Z,24.08
2022-12-03T00:57:22.378Z,22.17
2022-12-03T00:59:50.710Z,23.95
2022-12-03T01:02:17.943Z,22.70
2022-12-03T01:04:45.284Z,23.05
2022-12-03T01:07:12.535Z,24.38
2022-12-03T01:09:39.726Z,24.02
2022-12-03T01:12:06.911Z,24.63
2022-12-03T01:14:34.333Z,24.10
2022-12-03T01:17:01.465Z,22.48
2022-12-03T01:19:28.651Z,21.38
2022-12-03T01:21:55.936Z,22.63
2022-12-03T01:24:23.158Z,24.08
2022-12-03T01:26:50.285Z,22.17
2022-12-03T01:29:17.565Z,23.05
2022-12-03T01:32:03.309Z,22.90
2022-12-03T01:34:30.560Z,22.83
2022-12-03T01:36:57.893Z,22.52
2022-12-03T01:39:25.121Z,22.88
2022-12-03T01:41:53.357Z,21.25
2022-12-03T01:44:24.579Z,22.00
2022-12-03T01:46:52.681Z,22.40
2022-12-03T01:49:21.273Z,23.15
2022-12-03T01:51:49.753Z,21.50
2022-12-03T01:54:18.964Z,22.85
2022-12-03T01:56:46.894Z,24.20
2022-12-03T01:59:23.981Z,23.50
2022-12-03T02:01:51.319Z,24.48
2022-12-03T02:04:19.818Z,20.27
2022-12-03T02:06:47.082Z,24.35
2022-12-03T02:09:14.624Z,25.33
2022-12-03T02:11:44.376Z,23.48
2022-12-03T02:14:12.960Z,21.88
2022-12-03T02:16:41.998Z,22.20
2022-12-03T02:19:35.568Z,24.77
2022-12-03T02:22:02.706Z,24.58
2022-12-03T02:24:32.359Z,23.70
2022-12-03T02:26:59.635Z,23.95
2022-12-03T02:29:26.846Z,22.55
2022-12-03T02:31:54.144Z,23.38
2022-12-03T02:34:41.334Z,22.75
2022-12-03T02:37:09.706Z,23.90
2022-12-03T02:39:38.399Z,23.92
2022-12-03T02:42:24.698Z,23.25
2022-12-03T02:44:52.461Z,25.23
2022-12-03T02:47:21.347Z,24.05
2022-12-03T02:49:48.630Z,23.30
2022-12-03T02:52:15.831Z,25.35
2022-12-03T02:54:43.049Z,22.80
2022-12-03T02:57:10.303Z,24.58
2022-12-03T02:59:37.455Z,23.40
2022-12-03T03:02:04.623Z,25.85
2022-12-03T03:04:31.856Z,23.48
2022-12-03T03:06:59.419Z,25.23
2022-12-03T03:09:26.687Z,23.63
2022-12-03T03:11:53.894Z,24.95
2022-12-03T03:14:21.132Z,23.75
2022-12-03T03:16:55.857Z,23.45
2022-12-03T03:19:24.617Z,22.75
2022-12-03T03:21:51.943Z,25.40
2022-12-03T03:24:19.335Z,24.35
2022-12-03T03:26:46.595Z,24.13
2022-12-03T03:29:13.768Z,22.83
2022-12-03T03:31:41.477Z,21.95
2022-12-03T03:34:08.815Z,23.27
2022-12-03T03:36:36.303Z,23.30
2022-12-03T03:39:04.801Z,24.08
2022-12-03T03:41:32.338Z,25.77
2022-12-03T03:43:59.694Z,24.30
2022-12-03T03:46:28.084Z,24.10
2022-12-03T03:48:55.797Z,23.45
2022-12-03T03:51:23.044Z,23.98
2022-12-03T03:53:50.925Z,24.63
2022-12-03T03:56:19.807Z,23.55
2022-12-03T03:58:46.968Z,22.23
2022-12-03T04:01:14.851Z,22.27
2022-12-03T04:03:42.117Z,23.45
2022-12-03T04:06:09.669Z,23.55
2022-12-03T04:08:36.885Z,23.75
2022-12-03T04:11:22.696Z,24.88
2022-12-03T04:13:49.889Z,23.30
2022-12-03T04:16:17.177Z,24.67
2022-12-03T04:18:44.508Z,23.95
2022-12-03T04:21:34.154Z,23.50
2022-12-03T04:24:01.369Z,24.00
2022-12-03T04:26:47.628Z,24.98
2022-12-03T04:29:14.827Z,26.25
2022-12-03T04:32:00.626Z,25.13
2022-12-03T04:34:46.679Z,24.30
2022-12-03T04:37:13.880Z,26.67
2022-12-03T04:39:41.340Z,24.73
2022-12-03T04:42:08.618Z,24.05
2022-12-03T04:44:36.416Z,23.88
2022-12-03T04:47:09.879Z,25.10
2022-12-03T04:49:38.518Z,24.58
2022-12-03T04:52:05.785Z,26.17
2022-12-03T04:54:33.049Z,26.40
2022-12-03T04:57:00.361Z,25.40
2022-12-03T04:59:27.530Z,27.25
2022-12-03T05:01:54.811Z,27.73
2022-12-03T05:04:22.136Z,27.02
2022-12-03T05:06:49.323Z,25.80
2022-12-03T05:09:16.860Z,28.23
2022-12-03T05:11:44.374Z,26.45
2022-12-03T05:14:11.908Z,26.48
2022-12-03T05:16:39.147Z,24.52
2022-12-03T05:19:07.864Z,27.10
2022-12-03T05:21:35.244Z,25.80
2022-12-03T05:24:02.663Z,26.50
2022-12-03T05:26:30.025Z,26.77
2022-12-03T05:28:57.285Z,27.55
2022-12-03T05:31:24.508Z,27.25
2022-12-03T05:33:51.799Z,26.95
2022-12-03T05:36:19.114Z,26.27
2022-12-03T05:38:46.383Z,23.77
2022-12-03T05:41:32.217Z,28.55
2022-12-03T05:43:59.466Z,27.00
2022-12-03T05:46:26.617Z,27.10
2022-12-03T05:48:53.841Z,28.20
2022-12-03T05:51:20.987Z,24.40
2022-12-03T05:53:48.210Z,28.58
2022-12-03T05:56:15.331Z,27.23
2022-12-03T05:58:42.499Z,28.63
2022-12-03T06:01:09.670Z,27.30
2022-12-03T06:03:36.940Z,23.20
2022-12-03T06:06:04.302Z,26.00
2022-12-03T06:08:31.503Z,26.88
2022-12-03T06:10:58.653Z,28.30
2022-12-03T06:13:25.950Z,28.33
2022-12-03T06:15:53.257Z,26.50
2022-12-03T06:18:20.491Z,27.27
2022-12-03T06:20:47.597Z,30.58
2022-12-03T06:23:14.788Z,27.27
2022-12-03T06:25:41.929Z,28.48
2022-12-03T06:28:09.107Z,29.70
2022-12-03T06:30:36.279Z,28.13
2022-12-03T06:33:03.383Z,30.40
2022-12-03T06:35:30.629Z,28.33
2022-12-03T06:37:57.916Z,28.58
2022-12-03T06:40:25.171Z,29.55
2022-12-03T06:42:52.546Z,30.42
2022-12-03T06:45:19.763Z,26.60
2022-12-03T06:47:47.085Z,27.85
2022-12-03T06:50:14.537Z,27.10
2022-12-03T06:52:41.704Z,23.60
2022-12-03T06:55:09.286Z,25.38
2022-12-03T06:57:36.430Z,23.65
2022-12-03T07:00:05.137Z,21.63
2022-12-03T07:02:32.302Z,24.73
2022-12-03T07:04:59.456Z,25.08
2022-12-03T07:07:26.679Z,25.23
2022-12-03T07:09:53.909Z,23.30
2022-12-03T07:12:21.146Z,18.63
2022-12-03T07:14:48.334Z,23.95
2022-12-03T07:17:15.588Z,23.70
2022-12-03T07:19:42.851Z,24.00
2022-12-03T07:22:10.011Z,23.90
2022-12-03T07:24:37.199Z,24.00
2022-12-03T07:27:04.436Z,22.55
2022-12-03T07:29:31.589Z,23.50
2022-12-03T07:31:58.883Z,20.20
2022-12-03T07:34:26.036Z,20.83
2022-12-03T07:36:53.184Z,22.98
2022-12-03T07:39:20.306Z,19.60
2022-12-03T07:41:47.458Z,23.80
2022-12-03T07:44:15.024Z,21.92
2022-12-03T07:46:42.634Z,21.25
2022-12-03T07:49:09.921Z,23.50
2022-12-03T07:51:37.257Z,16.83
2022-12-03T07:54:04.735Z,19.55
2022-12-03T07:56:31.876Z,21.20
2022-12-03T07:58:59.125Z,24.48
2022-12-03T08:01:26.417Z,23.50
2022-12-03T08:03:53.706Z,25.17
2022-12-03T08:06:20.917Z,22.70
2022-12-03T08:08:48.058Z,21.50
2022-12-03T08:11:15.881Z,20.42
2022-12-03T08:13:43.305Z,19.20
2022-12-03T08:16:14.835Z,21.52
2022-12-03T08:18:42.096Z,24.17
2022-12-03T08:21:16.840Z,23.10
2022-12-03T08:23:44.253Z,22.75
2022-12-03T08:26:16.438Z,21.00
2022-12-03T08:28:44.113Z,23.95
2022-12-03T08:31:19.618Z,23.38
2022-12-03T08:33:51.274Z,22.80
2022-12-03T08:36:21.551Z,23.20
2022-12-03T08:38:53.342Z,23.60
2022-12-03T08:41:40.598Z,21.73
2022-12-03T08:44:15.508Z,23.10
2022-12-03T08:46:42.649Z,21.55
2022-12-03T08:49:12.346Z,21.88
2022-12-03T08:51:39.544Z,21.05
2022-12-03T08:54:13.564Z,23.58
2022-12-03T08:56:42.214Z,23.67
2022-12-03T08:59:21.919Z,23.48
2022-12-03T09:01:49.750Z,21.85
2022-12-03T09:04:22.902Z,22.58
2022-12-03T09:06:50.266Z,22.52
2022-12-03T09:09:17.592Z,22.00
2022-12-03T09:11:45.030Z,17.95
2022-12-03T09:14:18.093Z,21.40
2022-12-03T09:16:46.068Z,16.30
2022-12-03T09:19:13.383Z,19.65
2022-12-03T09:21:40.740Z,18.88
2022-12-03T09:24:08.112Z,18.45
2022-12-03T09:26:35.253Z,17.42
2022-12-03T09:29:05.263Z,18.33
2022-12-03T09:31:35.021Z,18.45
2022-12-03T09:34:03.007Z,18.40
2022-12-03T09:36:30.435Z,19.63
2022-12-03T09:38:58.496Z,18.90
2022-12-03T09:41:26.312Z,19.35
2022-12-03T09:44:15.802Z,17.80
2022-12-03T09:46:42.382Z,18.88
2022-12-03T09:49:15.867Z,15.88
2022-12-03T09:51:43.944Z,17.30
2022-12-03T09:54:12.219Z,18.25
2022-12-03T09:56:39.362Z,17.50
2022-12-03T09:59:07.514Z,19.75
2022-12-03T10:01:34.790Z,19.88
2022-12-03T10:04:02.381Z,14.95
2022-12-03T10:06:29.769Z,20.45
2022-12-03T10:08:57.236Z,20.63
2022-12-03T10:11:25.673Z,19.90
2022-12-03T10:13:56.751Z,22.67
2022-12-03T10:16:24.159Z,20.20
2022-12-03T10:18:53.207Z,18.85
2022-12-03T10:21:22.632Z,21.02
2022-12-03T10:23:55.040Z,20.77
2022-12-03T10:26:38.491Z,19.55
2022-12-03T10:29:12.607Z,21.33
2022-12-03T10:31:39.981Z,20.33
2022-12-03T10:34:07.130Z,15.32
2022-12-03T10:36:34.290Z,19.00
2022-12-03T10:39:07.611Z,21.20
2022-12-03T10:41:35.099Z,18.98
2022-12-03T10:44:19.071Z,19.95
2022-12-03T10:46:47.061Z,18.17
2022-12-03T10:49:18.484Z,19.15
2022-12-03T10:51:46.818Z,19.08
2022-12-03T10:54:24.138Z,19.90
2022-12-03T10:56:52.322Z,14.50
2022-12-03T10:59:21.414Z,19.02
2022-12-03T11:01:49.117Z,20.63
2022-12-03T11:04:24.222Z,18.25
2022-12-03T11:06:51.930Z,20.25
2022-12-03T11:09:20.925Z,22.45
2022-12-03T11:11:48.676Z,22.50
2022-12-03T11:14:35.819Z,20.38
2022-12-03T11:17:02.995Z,22.73
2022-12-03T11:19:50.519Z,21.13
2022-12-03T11:22:18.345Z,16.05
2022-12-03T11:24:45.481Z,23.70
2022-12-03T11:27:12.616Z,23.58
2022-12-03T11:29:52.076Z,18.92
2022-12-03T11:32:39.743Z,20.33
2022-12-03T11:35:09.735Z,19.75
2022-12-03T11:37:36.991Z,21.98
2022-12-03T11:40:24.352Z,22.58
2022-12-03T11:42:51.515Z,23.60
2022-12-03T11:45:35.263Z,24.02
2022-12-03T11:48:06.058Z,22.40
2022-12-03T11:50:39.408Z,23.67
2022-12-03T11:53:16.771Z,23.38
2022-12-03T11:56:04.175Z,24.63
2022-12-03T11:58:32.039Z,24.17
2022-12-03T12:01:00.289Z,21.58
2022-12-03T12:03:34.850Z,23.35
2022-12-03T12:06:03.300Z,22.80
2022-12-03T12:08:30.521Z,21.85
2022-12-03T12:10:57.719Z,22.98
2022-12-03T12:13:30.913Z,19.95
2022-12-03T12:16:08.344Z,21.73
2022-12-03T12:18:35.656Z,19.67
2022-12-03T12:21:21.715Z,19.00
2022-12-03T12:23:48.903Z,17.05
2022-12-03T12:26:16.185Z,17.60
2022-12-03T12:28:43.430Z,17.98
2022-12-03T12:31:13.759Z,17.35
2022-12-03T12:33:40.936Z,18.85
2022-12-03T12:36:11.162Z,18.38
2022-12-03T12:38:38.390Z,14.02
2022-12-03T12:41:08.326Z,18.20
2022-12-03T12:43:36.132Z,21.10
2022-12-03T12:46:45.481Z,19.48
2022-12-03T12:48:59.858Z,20.42
2022-12-03T12:51:27.285Z,19.88
2022-12-03T12:53:54.815Z,14.20
2022-12-03T12:56:26.655Z,16.00
2022-12-03T12:58:54.638Z,17.85
2022-12-03T13:01:23.952Z,18.05
2022-12-03T13:03:52.160Z,18.70
2022-12-03T13:06:22.239Z,20.23
2022-12-03T13:08:50.203Z,15.15
2022-12-03T13:11:29.701Z,14.85
2022-12-03T13:13:56.872Z,18.05
2022-12-03T13:16:25.169Z,20.90
2022-12-03T13:18:56.054Z,18.70
2022-12-03T13:21:25.050Z,18.98
2022-12-03T13:23:56.328Z,21.63
2022-12-03T13:26:34.514Z,21.20
2022-12-03T13:29:15.831Z,13.23
2022-12-03T13:31:47.875Z,20.80
2022-12-03T13:34:17.605Z,19.88
2022-12-03T13:36:48.404Z,19.15
2022-12-03T13:39:40.873Z,19.88
2022-12-03T13:42:32.760Z,19.15
2022-12-03T13:45:01.437Z,21.75
2022-12-03T13:47:28.700Z,20.92
2022-12-03T13:49:57.599Z,17.95
2022-12-03T13:52:25.953Z,16.67
2022-12-03T13:54:54.387Z,17.27
2022-12-03T13:57:21.737Z,18.17
2022-12-03T13:59:48.914Z,14.20
2022-12-03T14:02:16.327Z,14.80
2022-12-03T14:04:43.618Z,16.92
2022-12-03T14:07:10.824Z,14.40
2022-12-03T14:09:38.058Z,11.50
2022-12-03T14:12:24.103Z,14.10
2022-12-03T14:14:51.531Z,15.32
2022-12-03T14:17:18.720Z,14.82
2022-12-03T14:19:45.986Z,10.20
2022-12-03T14:22:13.268Z,15.55
2022-12-03T14:24:40.390Z,15.57
2022-12-03T14:27:07.579Z,15.52
2022-12-03T14:29:34.738Z,14.25
2022-12-03T14:32:02.070Z,14.88
2022-12-03T14:34:29.335Z,15.68
2022-12-03T14:36:56.638Z,14.75
2022-12-03T14:39:23.942Z,14.45
2022-12-03T14:42:09.701Z,11.75
2022-12-03T14:44:36.924Z,15.65
2022-12-03T14:47:04.118Z,16.35
2022-12-03T14:49:31.329Z,14.95
2022-12-03T14:51:58.507Z,15.43
2022-12-03T14:54:25.950Z,14.98
2022-12-03T14:56:53.166Z,13.50
2022-12-03T14:59:24.498Z,13.80
2022-12-03T15:01:54.756Z,17.25
2022-12-03T15:04:22.557Z,17.33
2022-12-03T15:06:50.007Z,15.73
2022-12-03T15:09:17.323Z,10.90
2022-12-03T15:11:46.362Z,13.20
2022-12-03T15:14:14.000Z,17.25
2022-12-03T15:16:41.267Z,13.40
2022-12-03T15:19:08.599Z,17.52
2022-12-03T15:21:35.906Z,16.55
2022-12-03T15:24:03.709Z,17.52
2022-12-03T15:26:31.029Z,14.73
2022-12-03T15:28:58.658Z,15.43
2022-12-03T15:31:25.968Z,16.52
2022-12-03T15:33:53.254Z,16.38
2022-12-03T15:36:20.532Z,17.05
2022-12-03T15:38:47.782Z,18.65
2022-12-03T15:41:21.547Z,19.27
2022-12-03T15:43:49.452Z,20.48
2022-12-03T15:46:16.839Z,19.05
2022-12-03T15:48:44.124Z,19.40
2022-12-03T15:51:11.320Z,20.13
2022-12-03T15:53:38.948Z,18.17
2022-12-03T15:56:06.317Z,15.73
2022-12-03T15:58:33.588Z,17.65
2022-12-03T16:01:01.109Z,18.20
2022-12-03T16:03:28.541Z,17.48
2022-12-03T16:05:55.969Z,18.92
2022-12-03T16:08:24.286Z,17.30
2022-12-03T16:10:51.756Z,17.30
2022-12-03T16:13:19.127Z,20.15
2022-12-03T16:15:46.503Z,16.80
2022-12-03T16:18:13.710Z,20.08
2022-12-03T16:20:40.985Z,20.60
2022-12-03T16:23:08.365Z,22.30
2022-12-03T16:25:35.619Z,21.73
2022-12-03T16:28:02.883Z,22.15
2022-12-03T16:30:30.118Z,17.77
2022-12-03T16:32:57.470Z,21.45
2022-12-03T16:35:24.715Z,22.23
2022-12-03T16:37:52.075Z,24.23
2022-12-03T16:40:19.236Z,23.33
2022-12-03T16:42:46.394Z,20.90
2022-12-03T16:45:16.259Z,20.27
2022-12-03T16:47:43.606Z,20.40
2022-12-03T16:50:16.473Z,16.98
2022-12-03T16:52:48.185Z,19.80
2022-12-03T16:55:15.462Z,19.35
2022-12-03T16:57:42.673Z,22.75
2022-12-03T17:00:10.138Z,19.98
2022-12-03T17:02:37.419Z,23.70
2022-12-03T17:05:04.721Z,21.35
2022-12-03T17:07:31.964Z,20.30
2022-12-03T17:09:59.222Z,25.20
2022-12-03T17:12:33.473Z,23.33
2022-12-03T17:15:13.689Z,22.88
2022-12-03T17:17:40.963Z,26.52
2022-12-03T17:20:08.646Z,21.10
2022-12-03T17:22:35.799Z,24.58
2022-12-03T17:25:02.946Z,26.15
2022-12-03T17:27:30.313Z,24.27
2022-12-03T17:29:57.521Z,26.13
2022-12-03T17:32:24.645Z,25.90
2022-12-03T17:34:51.814Z,22.90
2022-12-03T17:37:18.996Z,26.83
2022-12-03T17:39:46.211Z,30.42
2022-12-03T17:42:13.490Z,25.80
2022-12-03T17:44:40.763Z,29.33
2022-12-03T17:47:07.911Z,22.30
2022-12-03T17:49:35.153Z,27.25
2022-12-03T17:52:02.385Z,26.15
2022-12-03T17:54:49.098Z,19.88
2022-12-03T17:57:17.007Z,22.02
2022-12-03T17:59:44.267Z,18.33
2022-12-03T18:02:11.512Z,21.70
2022-12-03T18:04:38.815Z,23.50
2022-12-03T18:07:06.120Z,25.48
2022-12-03T18:09:33.284Z,23.23
2022-12-03T18:12:00.490Z,25.83
2022-12-03T18:14:27.783Z,22.98
2022-12-03T18:16:56.067Z,28.90
2022-12-03T18:19:23.319Z,24.25
2022-12-03T18:21:50.458Z,27.67
2022-12-03T18:24:17.683Z,29.98
2022-12-03T18:26:44.894Z,19.20
2022-12-03T18:29:12.086Z,22.35
2022-12-03T18:31:39.759Z,28.73
2022-12-03T18:34:06.988Z,29.63
2022-12-03T18:36:36.150Z,30.77
2022-12-03T18:39:04.492Z,23.05
2022-12-03T18:41:32.386Z,20.83
2022-12-03T18:43:59.675Z,27.85
2022-12-03T18:46:54.897Z,27.13
2022-12-03T18:49:14.086Z,29.48
2022-12-03T18:51:41.315Z,30.67
2022-12-03T18:54:14.582Z,29.52
2022-12-03T18:56:42.057Z,26.98
2022-12-03T18:59:09.453Z,25.58
2022-12-03T19:01:36.712Z,27.83
2022-12-03T19:04:03.967Z,30.10
2022-12-03T19:06:31.225Z,28.45
2022-12-03T19:08:58.596Z,24.00
2022-12-03T19:11:26.087Z,20.73
2022-12-03T19:13:53.353Z,28.33
2022-12-03T19:16:20.746Z,25.35
2022-12-03T19:18:48.454Z,22.15
2022-12-03T19:21:16.861Z,26.05
2022-12-03T19:24:04.248Z,23.13
2022-12-03T19:26:32.532Z,25.58
2022-12-03T19:28:59.686Z,23.98
2022-12-03T19:31:26.883Z,28.10
2022-12-03T19:33:54.400Z,27.88
2022-12-03T19:36:22.949Z,28.83
2022-12-03T19:38:56.599Z,25.08
2022-12-03T19:41:24.256Z,27.90
2022-12-03T19:43:52.258Z,28.75
2022-12-03T19:46:20.521Z,29.33
2022-12-03T19:48:48.154Z,20.60
2022-12-03T19:51:33.467Z,24.30
2022-12-03T19:54:01.751Z,29.50
2022-12-03T19:56:30.497Z,22.30
2022-12-03T19:58:58.242Z,18.17
2022-12-03T20:01:29.430Z,20.30
2022-12-03T20:03:57.597Z,22.17
2022-12-03T20:06:26.697Z,24.17
2022-12-03T20:09:00.841Z,27.02
2022-12-03T20:11:29.981Z,21.40
2022-12-03T20:13:58.441Z,25.55
2022-12-03T20:16:26.198Z,24.02
2022-12-03T20:18:56.667Z,23.95
2022-12-03T20:21:24.053Z,22.63
2022-12-03T20:23:51.272Z,20.27
2022-12-03T20:26:19.333Z,17.02
2022-12-03T20:28:47.955Z,23.70
2022-12-03T20:31:16.753Z,22.33
2022-12-03T20:33:45.804Z,21.70
2022-12-03T20:36:14.313Z,20.85
2022-12-03T20:38:41.869Z,23.50
2022-12-03T20:41:10.259Z,23.33
2022-12-03T20:43:37.450Z,27.88
2022-12-03T20:46:15.248Z,21.80
2022-12-03T20:48:43.356Z,25.35
2022-12-03T20:51:11.649Z,28.17
2022-12-03T20:53:38.927Z,26.60
2022-12-03T20:56:06.768Z,27.42
2022-12-03T20:58:34.350Z,27.80
2022-12-03T21:01:27.910Z,27.38
2022-12-03T21:03:56.246Z,25.08
2022-12-03T21:06:24.915Z,22.80
2022-12-03T21:08:55.611Z,24.98
2022-12-03T21:11:24.195Z,19.58
2022-12-03T21:13:51.712Z,27.60
2022-12-03T21:16:52.512Z,22.75
2022-12-03T21:19:17.951Z,24.67
2022-12-03T21:21:45.303Z,22.98
2022-12-03T21:24:13.601Z,23.67
2022-12-03T21:26:41.257Z,20.98
2022-12-03T21:29:08.829Z,26.17
2022-12-03T21:31:38.396Z,24.52
2022-12-03T21:34:05.766Z,24.63
2022-12-03T21:36:33.065Z,21.33
2022-12-03T21:39:00.576Z,25.52
2022-12-03T21:41:27.889Z,24.17
2022-12-03T21:43:55.016Z,25.42
2022-12-03T21:47:10.720Z,26.00
2022-12-03T21:49:09.659Z,23.20
2022-12-03T21:51:37.101Z,22.83
2022-12-03T21:54:04.372Z,25.10
2022-12-03T21:56:33.060Z,22.42
2022-12-03T21:59:00.321Z,24.05
2022-12-03T22:01:27.669Z,23.10
2022-12-03T22:03:54.930Z,23.33
2022-12-03T22:06:22.394Z,24.83
2022-12-03T22:08:49.738Z,21.42
2022-12-03T22:11:18.225Z,20.48
2022-12-03T22:13:45.578Z,20.45
2022-12-03T22:16:14.384Z,23.73
2022-12-03T22:18:42.391Z,23.63
2022-12-03T22:21:10.913Z,21.63
2022-12-03T22:23:38.641Z,22.58
2022-12-03T22:26:07.282Z,15.43
2022-12-03T22:28:34.981Z,23.52
2022-12-03T22:31:09.251Z,14.80
2022-12-03T22:33:37.394Z,22.92
2022-12-03T22:36:06.200Z,21.45
2022-12-03T22:38:33.770Z,23.48
2022-12-03T22:41:01.375Z,24.38
2022-12-03T22:43:28.637Z,23.42
2022-12-03T22:45:56.453Z,22.58
2022-12-03T22:48:24.370Z,24.75
2022-12-03T22:50:52.948Z,18.60
2022-12-03T22:53:20.709Z,22.13
2022-12-03T22:55:57.910Z,23.05
2022-12-03T22:58:25.977Z,20.08
2022-12-03T23:00:54.568Z,22.95
2022-12-03T23:03:23.848Z,22.50
2022-12-03T23:05:51.274Z,16.02
2022-12-03T23:08:19.961Z,23.40
2022-12-03T23:10:48.723Z,24.60
2022-12-03T23:13:16.739Z,23.10
2022-12-03T23:15:45.660Z,25.73
2022-12-03T23:18:13.070Z,21.83
2022-12-03T23:20:47.866Z,22.55
2022-12-03T23:23:15.454Z,22.70
2022-12-03T23:25:42.757Z,22.98
2022-12-03T23:28:10.880Z,22.67
2022-12-03T23:30:39.006Z,24.67
2022-12-03T23:33:07.031Z,24.88
2022-12-03T23:35:34.846Z,23.25
2022-12-03T23:38:02.132Z,24.08
2022-12-03T23:40:29.260Z,20.23
2022-12-03T23:42:56.614Z,17.77
2022-12-03T23:45:23.999Z,25.55
2022-12-03T23:47:55.094Z,18.98
2022-12-03T23:50:25.492Z,20.95
2022-12-03T23:52:52.901Z,25.00
2022-12-03T23:55:20.222Z,14.02
2022-12-03T23:57:47.686Z,25.10
